Time;durP1;ratioP1;P1;durP2;ratioP2;P2;SDS_P1;SDS_P2;PMS_P1;PMS_P2;Temp;Humidity;BMP_temperature;BMP_pressure;BME280_temperature;BME280_humidity;BME280_pressure;Samples;Min_cycle;Max_cycle;Signal;HPM_P1;HPM_P2
2024/03/14 00:01:00;;;;;;;24.63;22.53;;;;;;;;;;5114792;28;20484;-82
2024/03/14 00:03:28;;;;;;;28.17;25.57;;;;;;;;;;5114896;28;20479;-82
2024/03/14 00:05:55;;;;;;;29.37;26.47;;;;;;;;;;5115891;28;20470;-82
2024/03/14 00:08:22;;;;;;;26.90;24.60;;;;;;;;;;5115543;28;20527;-82
2024/03/14 00:10:51;;;;;;;27.33;25.13;;;;;;;;;;5114766;28;20501;-81
2024/03/14 00:13:18;;;;;;;28.33;25.93;;;;;;;;;;5115170;28;20451;-82
2024/03/14 00:15:45;;;;;;;27.40;25.17;;;;;;;;;;5115470;28;20411;-81
2024/03/14 00:18:11;;;;;;;25.60;23.57;;;;;;;;;;5115266;28;20773;-81
2024/03/14 00:20:42;;;;;;;27.30;25.00;;;;;;;;;;5114661;28;20435;-82
2024/03/14 00:23:11;;;;;;;28.47;25.93;;;;;;;;;;5115749;28;20448;-81
2024/03/14 00:25:40;;;;;;;28.07;25.83;;;;;;;;;;5116016;28;20476;-81
2024/03/14 00:28:09;;;;;;;31.37;28.57;;;;;;;;;;5115809;28;20420;-80
2024/03/14 00:30:36;;;;;;;28.70;26.13;;;;;;;;;;5115037;28;20492;-83
2024/03/14 00:33:04;;;;;;;29.23;26.37;;;;;;;;;;5115125;28;20468;-81
2024/03/14 00:35:31;;;;;;;26.37;24.20;;;;;;;;;;5115200;28;20875;-81
2024/03/14 00:37:59;;;;;;;30.33;27.67;;;;;;;;;;5115143;28;20440;-81
2024/03/14 00:40:26;;;;;;;29.27;26.47;;;;;;;;;;5114949;28;20472;-81
2024/03/14 00:42:53;;;;;;;26.83;24.60;;;;;;;;;;5114245;28;20507;-80
2024/03/14 00:45:20;;;;;;;28.17;25.50;;;;;;;;;;5115152;28;20470;-81
2024/03/14 00:47:47;;;;;;;28.77;26.27;;;;;;;;;;5115609;28;20484;-81
2024/03/14 00:50:14;;;;;;;28.90;26.50;;;;;;;;;;5114562;28;20467;-82
2024/03/14 00:52:41;;;;;;;26.27;24.03;;;;;;;;;;5113699;28;20460;-82
2024/03/14 00:55:09;;;;;;;27.87;25.07;;;;;;;;;;5115396;28;20521;-81
2024/03/14 00:57:36;;;;;;;28.17;25.57;;;;;;;;;;5114859;28;21170;-80
2024/03/14 01:00:11;;;;;;;28.90;26.37;;;;;;;;;;5113971;28;20478;-80
2024/03/14 01:02:38;;;;;;;28.73;26.03;;;;;;;;;;5114815;28;20978;-81
2024/03/14 01:05:05;;;;;;;27.20;24.90;;;;;;;;;;5114120;28;20474;-81
2024/03/14 01:07:33;;;;;;;28.27;25.77;;;;;;;;;;5114037;28;20945;-80
2024/03/14 01:10:00;;;;;;;31.50;28.70;;;;;;;;;;5113721;28;20544;-80
2024/03/14 01:12:27;;;;;;;30.57;27.77;;;;;;;;;;5113593;28;20438;-80
2024/03/14 01:14:55;;;;;;;30.00;27.40;;;;;;;;;;5114903;28;20463;-81
2024/03/14 01:17:23;;;;;;;29.40;26.80;;;;;;;;;;5114733;28;20428;-81
2024/03/14 01:19:51;;;;;;;30.50;27.87;;;;;;;;;;5114721;28;20538;-82
2024/03/14 01:22:19;;;;;;;30.87;27.70;;;;;;;;;;5114053;28;20414;-81
2024/03/14 01:24:46;;;;;;;30.03;27.23;;;;;;;;;;5113963;28;20489;-80
2024/03/14 01:27:13;;;;;;;31.00;28.00;;;;;;;;;;5115891;28;20440;-81
2024/03/14 01:29:40;;;;;;;30.50;27.50;;;;;;;;;;5117933;28;20473;-80
2024/03/14 01:32:09;;;;;;;32.87;29.60;;;;;;;;;;5117487;28;20482;-82
2024/03/14 01:34:36;;;;;;;31.97;28.87;;;;;;;;;;5118545;28;20463;-80
2024/03/14 01:37:05;;;;;;;29.70;26.93;;;;;;;;;;5117293;28;20459;-82
2024/03/14 01:39:35;;;;;;;28.30;25.50;;;;;;;;;;5118729;28;20459;-81
2024/03/14 01:42:03;;;;;;;31.90;28.90;;;;;;;;;;5120686;28;20428;-80
2024/03/14 01:44:36;;;;;;;31.17;27.93;;;;;;;;;;5133784;28;20515;-81
2024/03/14 01:47:04;;;;;;;28.53;25.83;;;;;;;;;;5133001;28;20488;-83
2024/03/14 01:49:32;;;;;;;31.50;28.47;;;;;;;;;;5128419;28;20531;-81
2024/03/14 01:52:00;;;;;;;31.70;28.50;;;;;;;;;;5117677;28;20515;-82
2024/03/14 01:54:27;;;;;;;29.23;26.50;;;;;;;;;;5118145;28;20564;-81
2024/03/14 01:56:58;;;;;;;30.60;27.60;;;;;;;;;;5117888;28;20469;-82
2024/03/14 01:59:27;;;;;;;31.57;28.50;;;;;;;;;;5118008;28;20471;-82
2024/03/14 02:01:55;;;;;;;30.37;27.47;;;;;;;;;;5116645;28;20819;-81
2024/03/14 02:04:23;;;;;;;31.43;28.33;;;;;;;;;;5118083;28;20449;-81
2024/03/14 02:06:51;;;;;;;32.00;28.80;;;;;;;;;;5115954;28;20982;-82
2024/03/14 02:09:22;;;;;;;30.00;27.30;;;;;;;;;;5117583;28;20474;-81
2024/03/14 02:11:49;;;;;;;30.27;27.13;;;;;;;;;;5116287;28;20921;-81
2024/03/14 02:14:16;;;;;;;30.20;27.23;;;;;;;;;;5117301;28;20460;-82
2024/03/14 02:16:44;;;;;;;31.00;27.83;;;;;;;;;;5116891;28;20807;-80
2024/03/14 02:19:11;;;;;;;28.87;26.27;;;;;;;;;;5117297;28;20933;-81
2024/03/14 02:21:39;;;;;;;29.07;26.17;;;;;;;;;;5116012;28;20474;-81
2024/03/14 02:24:07;;;;;;;30.77;27.73;;;;;;;;;;5116796;28;20510;-81
2024/03/14 02:26:40;;;;;;;31.13;28.13;;;;;;;;;;5117757;28;20508;-81
2024/03/14 02:29:08;;;;;;;28.93;26.10;;;;;;;;;;5115674;28;20517;-81
2024/03/14 02:31:35;;;;;;;29.90;27.10;;;;;;;;;;5116362;28;20843;-81
2024/03/14 02:34:04;;;;;;;31.57;28.57;;;;;;;;;;5116522;28;20473;-82
2024/03/14 02:36:31;;;;;;;29.57;26.80;;;;;;;;;;5117299;28;20491;-82
2024/03/14 02:38:58;;;;;;;27.93;25.43;;;;;;;;;;5116539;28;20954;-81
2024/03/14 02:41:28;;;;;;;26.77;24.27;;;;;;;;;;5116015;28;21184;-81
2024/03/14 02:43:56;;;;;;;29.30;26.37;;;;;;;;;;5117656;28;20462;-81
2024/03/14 02:46:25;;;;;;;28.43;25.57;;;;;;;;;;5116780;28;20465;-81
2024/03/14 02:48:52;;;;;;;27.97;25.60;;;;;;;;;;5119454;28;20476;-81
2024/03/14 02:51:20;;;;;;;29.70;26.90;;;;;;;;;;5121837;28;20865;-81
2024/03/14 02:53:47;;;;;;;28.20;25.60;;;;;;;;;;5124080;28;20492;-82
2024/03/14 02:56:14;;;;;;;30.80;27.60;;;;;;;;;;5117446;28;20467;-81
2024/03/14 02:58:41;;;;;;;28.77;26.20;;;;;;;;;;5115783;28;20436;-81
2024/03/14 03:01:09;;;;;;;28.63;25.83;;;;;;;;;;5115108;28;20907;-80
2024/03/14 03:03:38;;;;;;;28.23;25.70;;;;;;;;;;5115425;28;20960;-81
2024/03/14 03:06:05;;;;;;;28.73;25.93;;;;;;;;;;5115146;28;20460;-81
2024/03/14 03:08:32;;;;;;;28.60;25.70;;;;;;;;;;5116041;28;20436;-80
2024/03/14 03:10:59;;;;;;;28.40;25.73;;;;;;;;;;5115514;28;20486;-80
2024/03/14 03:13:27;;;;;;;28.17;25.27;;;;;;;;;;5115721;28;20493;-81
2024/03/14 03:15:54;;;;;;;29.97;27.03;;;;;;;;;;5114936;28;20475;-80
2024/03/14 03:18:21;;;;;;;28.77;25.67;;;;;;;;;;5115601;28;20437;-81
2024/03/14 03:20:48;;;;;;;29.30;26.23;;;;;;;;;;5115407;28;20444;-81
2024/03/14 03:23:17;;;;;;;27.20;24.63;;;;;;;;;;5115161;28;20452;-81
2024/03/14 03:25:43;;;;;;;25.83;23.57;;;;;;;;;;5115381;28;20506;-81
2024/03/14 03:28:10;;;;;;;27.67;25.00;;;;;;;;;;5115604;28;20448;-80
2024/03/14 03:30:37;;;;;;;27.80;25.07;;;;;;;;;;5114661;28;20512;-82
2024/03/14 03:33:05;;;;;;;27.60;25.07;;;;;;;;;;5115460;28;20432;-81
2024/03/14 03:35:33;;;;;;;27.67;24.80;;;;;;;;;;5114385;28;20535;-81
2024/03/14 03:38:00;;;;;;;28.47;25.63;;;;;;;;;;5115088;28;20521;-81
2024/03/14 03:40:35;;;;;;;28.10;25.33;;;;;;;;;;5115097;28;20446;-81
2024/03/14 03:43:03;;;;;;;29.90;27.00;;;;;;;;;;5114211;28;20795;-81
2024/03/14 03:45:29;;;;;;;27.70;25.10;;;;;;;;;;5114972;28;20513;-80
2024/03/14 03:47:56;;;;;;;29.60;26.53;;;;;;;;;;5114551;28;20847;-81
2024/03/14 03:50:23;;;;;;;28.40;25.60;;;;;;;;;;5114460;28;20432;-80
2024/03/14 03:52:52;;;;;;;28.07;25.33;;;;;;;;;;5113208;28;20497;-81
2024/03/14 03:55:18;;;;;;;27.33;24.83;;;;;;;;;;5115173;28;20460;-81
2024/03/14 03:57:46;;;;;;;28.70;25.80;;;;;;;;;;5114975;28;20456;-81
2024/03/14 04:02:54;;;;;;;27.27;24.73;;;;;;;;;;5111440;28;20428;-80
2024/03/14 04:05:21;;;;;;;28.77;26.13;;;;;;;;;;5114625;28;20901;-80
2024/03/14 04:07:49;;;;;;;28.90;25.77;;;;;;;;;;5114652;28;20446;-80
2024/03/14 04:10:15;;;;;;;26.83;24.13;;;;;;;;;;5114870;28;20427;-80
2024/03/14 04:12:42;;;;;;;26.57;24.00;;;;;;;;;;5114495;28;20468;-81
2024/03/14 04:15:10;;;;;;;28.97;25.93;;;;;;;;;;5114050;28;20539;-82
2024/03/14 04:17:36;;;;;;;28.87;25.73;;;;;;;;;;5114430;28;20488;-81
2024/03/14 04:20:10;;;;;;;28.73;25.97;;;;;;;;;;5113933;28;20488;-82
2024/03/14 04:22:37;;;;;;;28.00;25.20;;;;;;;;;;5114358;28;20461;-80
2024/03/14 04:25:10;;;;;;;27.93;25.00;;;;;;;;;;5114979;28;20559;-81
2024/03/14 04:27:37;;;;;;;28.43;25.53;;;;;;;;;;5114647;28;20434;-81
2024/03/14 04:30:06;;;;;;;28.70;25.60;;;;;;;;;;5114791;28;20505;-81
2024/03/14 04:32:33;;;;;;;29.20;26.17;;;;;;;;;;5113618;28;20466;-81
2024/03/14 04:35:01;;;;;;;29.50;26.40;;;;;;;;;;5114290;28;20521;-80
2024/03/14 04:37:29;;;;;;;33.87;26.57;;;;;;;;;;5114249;28;20472;-82
2024/03/14 04:39:56;;;;;;;30.17;27.30;;;;;;;;;;5114521;28;20448;-81
2024/03/14 04:42:23;;;;;;;30.67;27.37;;;;;;;;;;5113884;28;20439;-81
2024/03/14 04:44:51;;;;;;;29.90;26.70;;;;;;;;;;5114487;28;20445;-81
2024/03/14 04:47:18;;;;;;;30.87;27.77;;;;;;;;;;5114322;28;20486;-81
2024/03/14 04:49:45;;;;;;;28.93;26.23;;;;;;;;;;5114275;28;20467;-81
2024/03/14 04:52:14;;;;;;;28.73;25.83;;;;;;;;;;5113861;28;20532;-81
2024/03/14 04:54:42;;;;;;;28.00;25.20;;;;;;;;;;5114149;28;21058;-81
2024/03/14 04:57:09;;;;;;;29.60;26.90;;;;;;;;;;5114300;28;20483;-81
2024/03/14 04:59:37;;;;;;;29.67;26.80;;;;;;;;;;5114897;28;20411;-81
2024/03/14 05:02:04;;;;;;;28.53;25.80;;;;;;;;;;5117057;28;20441;-82
2024/03/14 05:04:32;;;;;;;27.93;25.30;;;;;;;;;;5118221;28;20482;-82
2024/03/14 05:06:59;;;;;;;29.10;26.27;;;;;;;;;;5118166;28;20411;-80
2024/03/14 05:09:27;;;;;;;26.93;24.33;;;;;;;;;;5118443;28;20435;-82
2024/03/14 05:11:54;;;;;;;28.60;25.60;;;;;;;;;;5117728;28;20452;-80
2024/03/14 05:14:21;;;;;;;27.40;24.97;;;;;;;;;;5118465;28;20528;-80
2024/03/14 05:16:48;;;;;;;25.40;23.23;;;;;;;;;;5118602;28;20418;-82
2024/03/14 05:19:16;;;;;;;27.53;25.03;;;;;;;;;;5117190;28;20477;-80
2024/03/14 05:21:45;;;;;;;26.37;23.97;;;;;;;;;;5117911;28;20514;-82
2024/03/14 05:24:12;;;;;;;28.33;25.53;;;;;;;;;;5117399;28;20457;-82
2024/03/14 05:26:42;;;;;;;27.27;24.80;;;;;;;;;;5118075;28;20491;-80
2024/03/14 05:29:09;;;;;;;26.60;24.20;;;;;;;;;;5118149;28;20451;-81
2024/03/14 05:31:36;;;;;;;28.20;25.80;;;;;;;;;;5116990;28;20488;-82
2024/03/14 05:34:03;;;;;;;27.20;24.70;;;;;;;;;;5117581;28;20492;-80
2024/03/14 05:36:30;;;;;;;27.63;25.23;;;;;;;;;;5117843;28;20500;-82
2024/03/14 05:38:58;;;;;;;27.53;24.93;;;;;;;;;;5117629;28;20504;-81
2024/03/14 05:41:25;;;;;;;29.37;26.47;;;;;;;;;;5117057;28;20422;-81
2024/03/14 05:43:52;;;;;;;27.13;24.43;;;;;;;;;;5117298;28;20561;-81
2024/03/14 05:46:19;;;;;;;25.10;23.00;;;;;;;;;;5117411;28;20458;-80
2024/03/14 05:48:46;;;;;;;24.50;22.20;;;;;;;;;;5115625;28;20420;-81
2024/03/14 05:51:13;;;;;;;25.90;23.57;;;;;;;;;;5116776;28;20471;-81
2024/03/14 05:53:40;;;;;;;26.50;24.00;;;;;;;;;;5117697;28;20469;-82
2024/03/14 05:56:09;;;;;;;26.80;24.37;;;;;;;;;;5117873;28;20454;-81
2024/03/14 05:58:37;;;;;;;27.27;24.70;;;;;;;;;;5117188;28;20496;-81
2024/03/14 06:01:06;;;;;;;28.70;26.17;;;;;;;;;;5116950;28;20452;-82
2024/03/14 06:03:34;;;;;;;27.40;25.20;;;;;;;;;;5117162;28;20474;-81
2024/03/14 06:06:01;;;;;;;28.13;25.33;;;;;;;;;;5117216;28;20570;-81
2024/03/14 06:08:28;;;;;;;26.60;24.27;;;;;;;;;;5116737;28;20485;-82
2024/03/14 06:10:56;;;;;;;26.50;24.00;;;;;;;;;;5115986;28;20928;-81
2024/03/14 06:13:23;;;;;;;28.83;26.10;;;;;;;;;;5116194;28;20510;-80
2024/03/14 06:15:50;;;;;;;26.70;24.40;;;;;;;;;;5117025;28;21003;-81
2024/03/14 06:18:19;;;;;;;28.00;25.30;;;;;;;;;;5116984;28;20439;-81
2024/03/14 06:20:46;;;;;;;28.83;26.00;;;;;;;;;;5116252;28;20444;-80
2024/03/14 06:23:14;;;;;;;27.00;24.80;;;;;;;;;;5116670;28;20456;-81
2024/03/14 06:25:41;;;;;;;29.80;27.00;;;;;;;;;;5116838;28;20445;-81
2024/03/14 06:28:08;;;;;;;28.80;26.13;;;;;;;;;;5116472;28;20960;-81
2024/03/14 06:30:35;;;;;;;27.10;24.80;;;;;;;;;;5116560;28;20498;-82
2024/03/14 06:33:03;;;;;;;28.13;25.53;;;;;;;;;;5116452;28;20521;-81
2024/03/14 06:35:30;;;;;;;26.57;24.17;;;;;;;;;;5116306;28;20978;-80
2024/03/14 06:37:57;;;;;;;29.30;26.67;;;;;;;;;;5115949;28;20474;-81
2024/03/14 06:40:24;;;;;;;27.13;24.73;;;;;;;;;;5116336;28;20470;-81
2024/03/14 06:42:53;;;;;;;27.73;25.23;;;;;;;;;;5116199;28;20446;-81
2024/03/14 06:45:20;;;;;;;27.47;24.93;;;;;;;;;;5116129;28;20425;-82
2024/03/14 06:47:47;;;;;;;27.13;24.57;;;;;;;;;;5115093;28;20499;-81
2024/03/14 06:50:14;;;;;;;27.90;25.50;;;;;;;;;;5115368;28;20505;-81
2024/03/14 06:52:42;;;;;;;27.87;25.37;;;;;;;;;;5115395;28;20519;-82
2024/03/14 06:55:10;;;;;;;26.80;24.47;;;;;;;;;;5116113;28;20460;-81
2024/03/14 06:57:39;;;;;;;27.20;24.80;;;;;;;;;;5116148;28;20458;-81
2024/03/14 07:00:16;;;;;;;25.80;23.60;;;;;;;;;;5114626;28;20449;-81
2024/03/14 07:02:44;;;;;;;28.10;25.60;;;;;;;;;;5115114;28;20455;-81
2024/03/14 07:05:14;;;;;;;27.00;24.80;;;;;;;;;;5115977;28;20457;-82
2024/03/14 07:07:42;;;;;;;29.00;26.50;;;;;;;;;;5115524;28;20471;-82
2024/03/14 07:10:13;;;;;;;28.03;25.57;;;;;;;;;;5116338;28;20439;-81
2024/03/14 07:12:41;;;;;;;27.63;25.30;;;;;;;;;;5121054;28;20543;-82
2024/03/14 07:15:08;;;;;;;27.97;25.67;;;;;;;;;;5128387;28;20460;-81
2024/03/14 07:17:35;;;;;;;29.37;26.73;;;;;;;;;;5126787;28;20496;-81
2024/03/14 07:20:08;;;;;;;29.43;26.87;;;;;;;;;;5117189;28;20419;-81
2024/03/14 07:22:37;;;;;;;27.63;25.40;;;;;;;;;;5115138;28;20477;-81
2024/03/14 07:25:04;;;;;;;28.07;25.47;;;;;;;;;;5114695;28;20551;-81
2024/03/14 07:27:32;;;;;;;30.10;27.50;;;;;;;;;;5115791;28;20450;-81
2024/03/14 07:30:00;;;;;;;29.67;27.07;;;;;;;;;;5116379;28;20440;-81
2024/03/14 07:32:28;;;;;;;31.40;28.30;;;;;;;;;;5115023;28;20525;-81
2024/03/14 07:34:55;;;;;;;30.97;28.20;;;;;;;;;;5115617;28;20523;-82
2024/03/14 07:37:23;;;;;;;27.87;25.40;;;;;;;;;;5115909;28;20455;-81
2024/03/14 07:39:51;;;;;;;28.93;26.30;;;;;;;;;;5115684;28;20519;-83
2024/03/14 07:42:18;;;;;;;29.53;26.93;;;;;;;;;;5114414;28;20937;-82
2024/03/14 07:44:46;;;;;;;29.67;26.83;;;;;;;;;;5114805;28;20990;-81
2024/03/14 07:47:19;;;;;;;29.20;26.53;;;;;;;;;;5115040;28;20440;-81
2024/03/14 07:49:46;;;;;;;28.37;25.67;;;;;;;;;;5114790;28;20466;-81
2024/03/14 07:52:14;;;;;;;27.80;25.50;;;;;;;;;;5114209;28;20957;-82
2024/03/14 07:54:44;;;;;;;29.00;26.23;;;;;;;;;;5115080;28;20466;-81
2024/03/14 07:57:13;;;;;;;26.63;24.37;;;;;;;;;;5114976;28;20438;-83
2024/03/14 07:59:40;;;;;;;28.37;26.07;;;;;;;;;;5114423;28;20521;-81
2024/03/14 08:02:10;;;;;;;26.17;23.97;;;;;;;;;;5114189;28;21032;-81
2024/03/14 08:04:37;;;;;;;28.77;26.20;;;;;;;;;;5114804;28;20566;-81
2024/03/14 08:07:10;;;;;;;26.10;23.77;;;;;;;;;;5114434;28;20481;-81
2024/03/14 08:09:37;;;;;;;26.13;24.00;;;;;;;;;;5114644;28;20467;-81
2024/03/14 08:12:04;;;;;;;23.70;21.80;;;;;;;;;;5114417;28;20492;-82
2024/03/14 08:14:33;;;;;;;25.47;23.23;;;;;;;;;;5114923;28;20468;-81
2024/03/14 08:17:00;;;;;;;26.10;24.00;;;;;;;;;;5115009;28;21031;-82
2024/03/14 08:19:28;;;;;;;25.43;23.23;;;;;;;;;;5114281;28;20810;-81
2024/03/14 08:21:56;;;;;;;24.73;22.60;;;;;;;;;;5113839;28;20450;-81
2024/03/14 08:24:26;;;;;;;24.63;22.80;;;;;;;;;;5114470;28;20533;-82
2024/03/14 08:26:53;;;;;;;26.77;24.57;;;;;;;;;;5115021;28;20518;-82
2024/03/14 08:29:25;;;;;;;26.13;24.00;;;;;;;;;;5114254;28;20959;-81
2024/03/14 08:31:58;;;;;;;24.57;22.67;;;;;;;;;;5113836;28;20818;-81
2024/03/14 08:34:27;;;;;;;23.93;22.07;;;;;;;;;;5114180;28;20445;-81
2024/03/14 08:36:55;;;;;;;25.23;23.33;;;;;;;;;;5114328;28;20451;-81
2024/03/14 08:39:22;;;;;;;25.00;23.00;;;;;;;;;;5114577;28;20538;-83
2024/03/14 08:41:49;;;;;;;25.80;23.60;;;;;;;;;;5113110;28;20479;-80
2024/03/14 08:44:16;;;;;;;24.90;23.00;;;;;;;;;;5113915;28;20502;-81
2024/03/14 08:46:43;;;;;;;26.40;24.40;;;;;;;;;;5114430;28;20429;-81
2024/03/14 08:49:13;;;;;;;25.47;23.23;;;;;;;;;;5114838;28;20440;-81
2024/03/14 08:51:40;;;;;;;26.27;24.17;;;;;;;;;;5113413;28;20456;-81
2024/03/14 08:54:14;;;;;;;25.57;23.57;;;;;;;;;;5114326;28;20495;-81
2024/03/14 08:56:41;;;;;;;25.73;23.70;;;;;;;;;;5114673;28;20816;-81
2024/03/14 08:59:08;;;;;;;26.23;24.23;;;;;;;;;;5113929;28;20472;-81
2024/03/14 09:01:35;;;;;;;25.80;23.93;;;;;;;;;;5114383;28;20515;-81
2024/03/14 09:04:02;;;;;;;24.87;23.00;;;;;;;;;;5113998;28;20886;-82
2024/03/14 09:06:31;;;;;;;25.57;23.60;;;;;;;;;;5114132;28;20457;-81
2024/03/14 09:09:00;;;;;;;26.20;24.10;;;;;;;;;;5113906;28;20845;-81
2024/03/14 09:11:28;;;;;;;26.20;24.13;;;;;;;;;;5113627;28;20538;-81
2024/03/14 09:13:56;;;;;;;26.67;24.57;;;;;;;;;;5113245;28;20593;-81
2024/03/14 09:16:23;;;;;;;26.20;24.20;;;;;;;;;;5114620;28;20504;-81
2024/03/14 09:18:50;;;;;;;26.17;24.20;;;;;;;;;;5114255;28;20418;-82
2024/03/14 09:21:19;;;;;;;25.20;23.30;;;;;;;;;;5113209;28;20792;-81
2024/03/14 09:23:46;;;;;;;26.90;24.80;;;;;;;;;;5113480;28;20943;-81
2024/03/14 09:26:13;;;;;;;26.27;24.03;;;;;;;;;;5113809;28;20789;-82
2024/03/14 09:28:41;;;;;;;27.17;24.97;;;;;;;;;;5113818;28;20936;-82
2024/03/14 09:31:08;;;;;;;24.43;22.53;;;;;;;;;;5113309;28;20450;-83
2024/03/14 09:33:37;;;;;;;25.47;23.33;;;;;;;;;;5113582;28;20489;-81
2024/03/14 09:36:09;;;;;;;27.17;25.20;;;;;;;;;;5114183;28;20475;-81
2024/03/14 09:38:36;;;;;;;26.70;24.70;;;;;;;;;;5114697;28;20430;-81
2024/03/14 09:41:04;;;;;;;27.27;24.83;;;;;;;;;;5113064;28;20455;-82
2024/03/14 09:43:31;;;;;;;27.07;25.07;;;;;;;;;;5114262;28;20449;-81
2024/03/14 09:45:59;;;;;;;24.67;22.83;;;;;;;;;;5113132;28;20509;-81
2024/03/14 09:48:26;;;;;;;25.50;23.60;;;;;;;;;;5115354;28;20539;-82
2024/03/14 09:50:53;;;;;;;24.90;22.80;;;;;;;;;;5117183;28;20447;-81
2024/03/14 09:53:23;;;;;;;28.20;26.00;;;;;;;;;;5117136;28;20491;-82
2024/03/14 09:55:50;;;;;;;25.20;23.30;;;;;;;;;;5116793;28;20460;-81
2024/03/14 09:58:20;;;;;;;26.90;24.80;;;;;;;;;;5117484;28;20419;-81
2024/03/14 10:00:47;;;;;;;27.03;24.93;;;;;;;;;;5117222;28;20445;-81
2024/03/14 10:03:14;;;;;;;24.73;23.03;;;;;;;;;;5116902;28;20469;-82
2024/03/14 10:05:41;;;;;;;26.57;24.33;;;;;;;;;;5116274;28;20510;-80
2024/03/14 10:08:08;;;;;;;25.77;23.77;;;;;;;;;;5117174;28;20434;-81
2024/03/14 10:10:37;;;;;;;26.73;24.83;;;;;;;;;;5116680;28;20507;-82
2024/03/14 10:13:04;;;;;;;28.23;25.83;;;;;;;;;;5116701;28;20512;-80
2024/03/14 10:15:37;;;;;;;26.97;24.67;;;;;;;;;;5117003;28;20455;-81
2024/03/14 10:18:04;;;;;;;27.40;25.10;;;;;;;;;;5115525;28;20428;-81
2024/03/14 10:20:35;;;;;;;27.07;24.97;;;;;;;;;;5116300;28;20460;-83
2024/03/14 10:23:02;;;;;;;27.70;25.50;;;;;;;;;;5116308;28;20481;-81
2024/03/14 10:25:35;;;;;;;26.53;24.60;;;;;;;;;;5117074;28;20858;-82
2024/03/14 10:28:05;;;;;;;25.90;24.10;;;;;;;;;;5117301;28;20426;-81
2024/03/14 10:30:33;;;;;;;26.70;24.60;;;;;;;;;;5116214;28;20461;-82
2024/03/14 10:33:00;;;;;;;22.73;21.13;;;;;;;;;;5116150;28;20487;-82
2024/03/14 10:35:30;;;;;;;26.53;24.33;;;;;;;;;;5116390;28;20506;-81
2024/03/14 10:37:58;;;;;;;27.57;25.60;;;;;;;;;;5116500;28;20933;-82
2024/03/14 10:40:27;;;;;;;26.47;24.57;;;;;;;;;;5115540;28;20467;-82
2024/03/14 10:42:55;;;;;;;27.63;25.30;;;;;;;;;;5115829;28;21220;-82
2024/03/14 10:45:22;;;;;;;24.80;23.00;;;;;;;;;;5116272;28;21012;-82
2024/03/14 10:47:49;;;;;;;26.87;24.83;;;;;;;;;;5114675;28;20440;-81
2024/03/14 10:50:19;;;;;;;27.13;25.13;;;;;;;;;;5116721;28;20488;-82
2024/03/14 10:52:49;;;;;;;26.33;24.43;;;;;;;;;;5115327;28;20464;-81
2024/03/14 10:55:16;;;;;;;25.17;23.47;;;;;;;;;;5116459;28;20470;-81
2024/03/14 10:57:43;;;;;;;26.77;24.73;;;;;;;;;;5115981;28;21004;-81
2024/03/14 11:00:14;;;;;;;26.60;24.70;;;;;;;;;;5115796;28;20440;-82
2024/03/14 11:02:42;;;;;;;27.43;25.40;;;;;;;;;;5115110;28;20858;-81
2024/03/14 11:05:09;;;;;;;28.53;26.07;;;;;;;;;;5115190;28;20448;-81
2024/03/14 11:07:36;;;;;;;29.03;26.73;;;;;;;;;;5116036;28;20436;-81
2024/03/14 11:10:08;;;;;;;24.37;22.50;;;;;;;;;;5115377;28;20420;-81
2024/03/14 11:12:35;;;;;;;27.80;25.63;;;;;;;;;;5114539;28;20455;-80
2024/03/14 11:15:03;;;;;;;26.67;24.47;;;;;;;;;;5115738;28;20466;-81
2024/03/14 11:17:31;;;;;;;24.50;22.73;;;;;;;;;;5116010;28;20448;-81
2024/03/14 11:19:58;;;;;;;27.07;25.17;;;;;;;;;;5115908;28;20449;-81
2024/03/14 11:22:26;;;;;;;27.43;25.50;;;;;;;;;;5114522;28;20446;-81
2024/03/14 11:24:54;;;;;;;28.17;26.10;;;;;;;;;;5115654;28;20469;-81
2024/03/14 11:27:21;;;;;;;25.97;23.97;;;;;;;;;;5114663;28;20468;-81
2024/03/14 11:29:48;;;;;;;25.20;23.40;;;;;;;;;;5116117;28;20442;-83
2024/03/14 11:32:18;;;;;;;27.80;25.67;;;;;;;;;;5115593;28;20447;-82
2024/03/14 11:34:46;;;;;;;25.33;23.43;;;;;;;;;;5114458;28;20466;-81
2024/03/14 11:37:14;;;;;;;25.60;23.70;;;;;;;;;;5115390;28;20454;-81
2024/03/14 11:39:46;;;;;;;26.63;24.63;;;;;;;;;;5114956;28;20473;-81
2024/03/14 11:42:14;;;;;;;24.87;23.07;;;;;;;;;;5116396;28;20435;-81
2024/03/14 11:44:44;;;;;;;26.30;24.50;;;;;;;;;;5114257;28;20485;-81
2024/03/14 11:47:14;;;;;;;23.63;22.03;;;;;;;;;;5114493;28;20447;-82
2024/03/14 11:49:42;;;;;;;25.33;23.73;;;;;;;;;;5114110;28;20976;-81
2024/03/14 11:52:11;;;;;;;26.07;24.37;;;;;;;;;;5114805;28;20773;-81
2024/03/14 11:54:40;;;;;;;24.50;22.83;;;;;;;;;;5114072;28;20497;-81
2024/03/14 11:57:08;;;;;;;26.33;24.33;;;;;;;;;;5114710;28;20445;-81
2024/03/14 11:59:38;;;;;;;25.20;23.50;;;;;;;;;;5115010;28;20448;-82
2024/03/14 12:02:05;;;;;;;26.00;24.10;;;;;;;;;;5114088;28;20489;-81
2024/03/14 12:04:32;;;;;;;24.83;23.13;;;;;;;;;;5114902;28;20459;-81
2024/03/14 12:07:03;;;;;;;25.77;24.07;;;;;;;;;;5114329;28;20442;-81
2024/03/14 12:09:31;;;;;;;24.27;22.67;;;;;;;;;;5114267;28;20915;-81
2024/03/14 12:11:58;;;;;;;24.97;23.27;;;;;;;;;;5112967;28;20823;-81
2024/03/14 12:14:26;;;;;;;25.73;23.93;;;;;;;;;;5114448;27;20537;-81
2024/03/14 12:16:53;;;;;;;26.37;24.53;;;;;;;;;;5114361;28;20440;-81
2024/03/14 12:19:20;;;;;;;23.53;21.90;;;;;;;;;;5114483;28;20452;-82
2024/03/14 12:21:59;;;;;;;24.40;22.80;;;;;;;;;;5113947;28;20477;-81
2024/03/14 12:24:27;;;;;;;23.77;22.17;;;;;;;;;;5114652;28;20467;-81
2024/03/14 12:26:57;;;;;;;25.00;23.00;;;;;;;;;;5114684;28;20448;-82
2024/03/14 12:29:24;;;;;;;24.47;22.63;;;;;;;;;;5114437;28;20845;-81
2024/03/14 12:31:51;;;;;;;25.00;22.97;;;;;;;;;;5113488;28;20444;-81
2024/03/14 12:34:18;;;;;;;25.27;23.47;;;;;;;;;;5114014;28;20489;-81
2024/03/14 12:36:46;;;;;;;25.23;23.50;;;;;;;;;;5114527;28;20448;-82
2024/03/14 12:39:15;;;;;;;25.20;23.50;;;;;;;;;;5114549;28;20448;-81
2024/03/14 12:41:42;;;;;;;25.67;23.97;;;;;;;;;;5114376;28;20458;-80
2024/03/14 12:44:09;;;;;;;24.03;22.50;;;;;;;;;;5113583;28;20817;-81
2024/03/14 12:46:38;;;;;;;24.30;22.60;;;;;;;;;;5114035;28;20442;-81
2024/03/14 12:49:07;;;;;;;25.20;23.50;;;;;;;;;;5114860;28;20958;-82
2024/03/14 12:51:35;;;;;;;23.17;21.67;;;;;;;;;;5113972;28;20445;-82
2024/03/14 12:54:03;;;;;;;24.10;22.50;;;;;;;;;;5113375;28;20566;-80
2024/03/14 12:56:31;;;;;;;25.33;23.63;;;;;;;;;;5114784;28;20826;-81
2024/03/14 12:58:58;;;;;;;24.10;22.53;;;;;;;;;;5114288;28;20495;-81
2024/03/14 13:01:29;;;;;;;25.90;24.07;;;;;;;;;;5113945;28;20503;-82
2024/03/14 13:03:59;;;;;;;25.37;23.67;;;;;;;;;;5113695;28;20461;-81
2024/03/14 13:06:28;;;;;;;24.70;23.10;;;;;;;;;;5113662;28;20456;-81
2024/03/14 13:09:08;;;;;;;25.50;23.77;;;;;;;;;;5113877;28;20447;-81
2024/03/14 13:11:35;;;;;;;24.93;23.23;;;;;;;;;;5113696;28;20443;-82
2024/03/14 13:14:11;;;;;;;25.07;23.27;;;;;;;;;;5113738;28;20558;-81
2024/03/14 13:16:38;;;;;;;22.83;21.20;;;;;;;;;;5114029;28;20428;-82
2024/03/14 13:19:06;;;;;;;24.20;22.70;;;;;;;;;;5114129;28;20439;-82
2024/03/14 13:21:43;;;;;;;23.57;22.00;;;;;;;;;;5113138;28;20448;-82
2024/03/14 13:24:13;;;;;;;23.47;21.60;;;;;;;;;;5116532;28;20495;-81
2024/03/14 13:26:40;;;;;;;24.73;23.10;;;;;;;;;;5117259;28;20960;-82
2024/03/14 13:29:08;;;;;;;24.80;23.20;;;;;;;;;;5117573;28;20438;-82
2024/03/14 13:31:36;;;;;;;25.50;23.80;;;;;;;;;;5117708;28;20456;-81
2024/03/14 13:34:03;;;;;;;25.20;23.50;;;;;;;;;;5117239;28;20483;-81
2024/03/14 13:36:36;;;;;;;22.90;21.40;;;;;;;;;;5117347;28;20467;-82
2024/03/14 13:39:06;;;;;;;23.53;21.57;;;;;;;;;;5118199;28;20527;-81
2024/03/14 13:41:35;;;;;;;22.53;21.20;;;;;;;;;;5117499;28;20435;-81
2024/03/14 13:44:04;;;;;;;24.30;22.53;;;;;;;;;;5117779;28;20473;-82
2024/03/14 13:46:32;;;;;;;22.73;21.33;;;;;;;;;;5116985;28;20495;-81
2024/03/14 13:49:02;;;;;;;23.30;21.80;;;;;;;;;;5117413;28;20500;-81
2024/03/14 13:51:29;;;;;;;23.20;21.80;;;;;;;;;;5116346;28;20450;-81
2024/03/14 13:53:57;;;;;;;23.30;21.87;;;;;;;;;;5117376;28;20521;-81
2024/03/14 13:56:28;;;;;;;23.67;22.07;;;;;;;;;;5116442;28;20954;-81
2024/03/14 13:58:57;;;;;;;24.43;22.73;;;;;;;;;;5117429;28;20475;-81
2024/03/14 14:01:24;;;;;;;23.80;21.90;;;;;;;;;;5116273;28;20500;-81
2024/03/14 14:03:54;;;;;;;23.67;22.13;;;;;;;;;;5117045;28;20484;-81
2024/03/14 14:06:22;;;;;;;22.70;21.20;;;;;;;;;;5116927;28;21006;-82
2024/03/14 14:08:49;;;;;;;24.73;23.07;;;;;;;;;;5117372;28;20453;-81
2024/03/14 14:11:17;;;;;;;24.27;22.77;;;;;;;;;;5116962;28;20458;-82
2024/03/14 14:13:46;;;;;;;24.07;22.37;;;;;;;;;;5117725;28;20464;-81
2024/03/14 14:16:13;;;;;;;22.37;20.87;;;;;;;;;;5117657;28;20448;-82
2024/03/14 14:18:41;;;;;;;21.67;20.27;;;;;;;;;;5117080;28;20785;-82
2024/03/14 14:21:08;;;;;;;23.03;21.67;;;;;;;;;;5116681;28;20440;-82
2024/03/14 14:23:36;;;;;;;21.90;20.60;;;;;;;;;;5116985;28;20858;-81